sensor_id;sensor_type;location;lat;lon;timestamp;temperature;humidity
59572;DHT22;74587;45.880;11.484;2024-03-17T00:01:00;6.90;99.90
59572;DHT22;74587;45.880;11.484;2024-03-17T00:03:26;6.90;99.90
59572;DHT22;74587;45.880;11.484;2024-03-17T00:05:59;7.00;99.90
59572;DHT22;74587;45.880;11.484;2024-03-17T00:08:27;7.10;99.90
59572;DHT22;74587;45.880;11.484;2024-03-17T00:10:58;7.10;99.90
59572;DHT22;74587;45.880;11.484;2024-03-17T00:13:26;7.00;99.90
59572;DHT22;74587;45.880;11.484;2024-03-17T00:15:52;7.00;99.90
59572;DHT22;74587;45.880;11.484;2024-03-17T00:18:18;6.80;99.90
59572;DHT22;74587;45.880;11.484;2024-03-17T00:20:44;6.80;99.90
59572;DHT22;74587;45.880;11.484;2024-03-17T00:23:33;6.70;99.90
59572;DHT22;74587;45.880;11.484;2024-03-17T00:26:00;6.80;99.90
59572;DHT22;74587;45.880;11.484;2024-03-17T00:28:29;6.40;99.90
59572;DHT22;74587;45.880;11.484;2024-03-17T00:30:55;6.40;99.90
59572;DHT22;74587;45.880;11.484;2024-03-17T00:33:25;6.50;99.90
59572;DHT22;74587;45.880;11.484;2024-03-17T00:35:51;6.50;99.90
59572;DHT22;74587;45.880;11.484;2024-03-17T00:38:18;6.30;99.90
59572;DHT22;74587;45.880;11.484;2024-03-17T00:40:46;6.30;99.90
59572;DHT22;74587;45.880;11.484;2024-03-17T02:51:29;6.20;99.90
59572;DHT22;74587;45.880;11.484;2024-03-17T02:53:55;5.90;99.90
59572;DHT22;74587;45.880;11.484;2024-03-17T02:56:24;6.10;99.90
59572;DHT22;74587;45.880;11.484;2024-03-17T02:59:11;6.00;99.90
59572;DHT22;74587;45.880;11.484;2024-03-17T03:01:38;6.00;99.90
59572;DHT22;74587;45.880;11.484;2024-03-17T03:04:05;6.10;99.90
59572;DHT22;74587;45.880;11.484;2024-03-17T03:06:35;6.00;99.90
59572;DHT22;74587;45.880;11.484;2024-03-17T03:09:04;6.10;99.90
59572;DHT22;74587;45.880;11.484;2024-03-17T03:11:52;5.90;99.90
59572;DHT22;74587;45.880;11.484;2024-03-17T03:22:07;6.00;99.90
59572;DHT22;74587;45.880;11.484;2024-03-17T03:24:53;6.10;99.90
59572;DHT22;74587;45.880;11.484;2024-03-17T03:50:58;6.30;99.90
59572;DHT22;74587;45.880;11.484;2024-03-17T03:53:27;6.40;99.90
59572;DHT22;74587;45.880;11.484;2024-03-17T04:08:48;6.40;99.90
59572;DHT22;74587;45.880;11.484;2024-03-17T04:26:55;6.20;99.90
59572;DHT22;74587;45.880;11.484;2024-03-17T04:29:21;6.10;99.90
59572;DHT22;74587;45.880;11.484;2024-03-17T04:31:47;5.90;99.90
59572;DHT22;74587;45.880;11.484;2024-03-17T04:34:14;5.80;99.90
59572;DHT22;74587;45.880;11.484;2024-03-17T04:36:40;6.20;99.90
59572;DHT22;74587;45.880;11.484;2024-03-17T04:39:06;6.00;99.90
59572;DHT22;74587;45.880;11.484;2024-03-17T04:41:34;6.00;99.90
59572;DHT22;74587;45.880;11.484;2024-03-17T04:43:59;6.00;99.90
59572;DHT22;74587;45.880;11.484;2024-03-17T04:46:25;5.80;99.90
59572;DHT22;74587;45.880;11.484;2024-03-17T04:48:51;6.10;99.90
59572;DHT22;74587;45.880;11.484;2024-03-17T04:51:17;6.00;99.90
59572;DHT22;74587;45.880;11.484;2024-03-17T04:53:43;6.10;99.90
59572;DHT22;74587;45.880;11.484;2024-03-17T04:56:09;6.10;99.90
59572;DHT22;74587;45.880;11.484;2024-03-17T04:58:35;6.00;99.90
59572;DHT22;74587;45.880;11.484;2024-03-17T05:01:08;5.80;99.90
59572;DHT22;74587;45.880;11.484;2024-03-17T05:03:34;5.80;99.90
59572;DHT22;74587;45.880;11.484;2024-03-17T05:06:02;5.90;99.90
59572;DHT22;74587;45.880;11.484;2024-03-17T05:08:29;5.80;99.90
59572;DHT22;74587;45.880;11.484;2024-03-17T05:10:59;5.90;99.90
59572;DHT22;74587;45.880;11.484;2024-03-17T05:13:28;5.90;99.90
59572;DHT22;74587;45.880;11.484;2024-03-17T05:15:55;5.90;99.90
59572;DHT22;74587;45.880;11.484;2024-03-17T05:18:23;5.90;99.90
59572;DHT22;74587;45.880;11.484;2024-03-17T05:21:02;5.80;99.90
59572;DHT22;74587;45.880;11.484;2024-03-17T05:23:30;5.80;99.90
59572;DHT22;74587;45.880;11.484;2024-03-17T05:25:59;5.80;99.90
59572;DHT22;74587;45.880;11.484;2024-03-17T05:28:26;5.80;99.90
59572;DHT22;74587;45.880;11.484;2024-03-17T05:30:54;5.50;99.90
59572;DHT22;74587;45.880;11.484;2024-03-17T05:33:23;5.70;99.90
59572;DHT22;74587;45.880;11.484;2024-03-17T05:35:54;5.70;99.90
59572;DHT22;74587;45.880;11.484;2024-03-17T05:38:43;5.80;99.90
59572;DHT22;74587;45.880;11.484;2024-03-17T05:41:12;5.80;99.90
59572;DHT22;74587;45.880;11.484;2024-03-17T05:43:38;5.90;99.90
59572;DHT22;74587;45.880;11.484;2024-03-17T06:29:20;8.00;99.90
59572;DHT22;74587;45.880;11.484;2024-03-17T06:50:11;10.70;99.90
59572;DHT22;74587;45.880;11.484;2024-03-17T06:52:37;10.90;99.90
59572;DHT22;74587;45.880;11.484;2024-03-17T06:55:04;10.90;99.90
59572;DHT22;74587;45.880;11.484;2024-03-17T06:57:31;11.00;99.90
59572;DHT22;74587;45.880;11.484;2024-03-17T06:59:56;10.90;99.90
59572;DHT22;74587;45.880;11.484;2024-03-17T07:02:22;10.90;99.90
59572;DHT22;74587;45.880;11.484;2024-03-17T07:04:48;10.80;99.90
59572;DHT22;74587;45.880;11.484;2024-03-17T07:07:14;10.90;99.90
59572;DHT22;74587;45.880;11.484;2024-03-17T07:09:42;10.80;99.90
59572;DHT22;74587;45.880;11.484;2024-03-17T07:12:09;10.60;99.90
59572;DHT22;74587;45.880;11.484;2024-03-17T07:14:36;10.60;99.90
59572;DHT22;74587;45.880;11.484;2024-03-17T07:17:02;10.50;99.90
59572;DHT22;74587;45.880;11.484;2024-03-17T07:19:28;10.50;99.90
59572;DHT22;74587;45.880;11.484;2024-03-17T07:21:54;10.60;99.90
59572;DHT22;74587;45.880;11.484;2024-03-17T07:24:20;10.60;99.90
59572;DHT22;74587;45.880;11.484;2024-03-17T07:26:49;10.40;99.90
59572;DHT22;74587;45.880;11.484;2024-03-17T07:29:16;10.50;99.90
59572;DHT22;74587;45.880;11.484;2024-03-17T07:31:42;10.50;99.90
59572;DHT22;74587;45.880;11.484;2024-03-17T07:34:07;10.70;99.90
59572;DHT22;74587;45.880;11.484;2024-03-17T07:36:33;10.90;99.90
59572;DHT22;74587;45.880;11.484;2024-03-17T07:38:59;11.10;99.90
59572;DHT22;74587;45.880;11.484;2024-03-17T07:41:25;11.30;99.90
59572;DHT22;74587;45.880;11.484;2024-03-17T07:43:52;11.40;99.90
59572;DHT22;74587;45.880;11.484;2024-03-17T07:46:18;11.70;99.90
59572;DHT22;74587;45.880;11.484;2024-03-17T07:48:44;11.70;99.90
59572;DHT22;74587;45.880;11.484;2024-03-17T07:51:13;11.90;99.90
59572;DHT22;74587;45.880;11.484;2024-03-17T07:53:40;12.00;99.90
59572;DHT22;74587;45.880;11.484;2024-03-17T07:56:13;12.10;99.90
59572;DHT22;74587;45.880;11.484;2024-03-17T07:58:40;11.90;99.90
59572;DHT22;74587;45.880;11.484;2024-03-17T08:01:13;11.90;99.90
59572;DHT22;74587;45.880;11.484;2024-03-17T08:03:41;11.90;99.90
59572;DHT22;74587;45.880;11.484;2024-03-17T08:06:08;11.90;99.90
59572;DHT22;74587;45.880;11.484;2024-03-17T08:08:34;11.70;99.90
59572;DHT22;74587;45.880;11.484;2024-03-17T08:11:00;11.60;99.90
59572;DHT22;74587;45.880;11.484;2024-03-17T08:13:29;11.50;99.90
59572;DHT22;74587;45.880;11.484;2024-03-17T08:16:00;11.40;99.90
59572;DHT22;74587;45.880;11.484;2024-03-17T08:18:26;11.40;99.90
59572;DHT22;74587;45.880;11.484;2024-03-17T08:20:53;11.40;99.90
59572;DHT22;74587;45.880;11.484;2024-03-17T08:23:20;11.30;99.90
59572;DHT22;74587;45.880;11.484;2024-03-17T08:25:56;11.40;99.90
59572;DHT22;74587;45.880;11.484;2024-03-17T08:28:23;11.30;99.90
59572;DHT22;74587;45.880;11.484;2024-03-17T08:31:02;11.30;99.90
59572;DHT22;74587;45.880;11.484;2024-03-17T08:33:29;11.30;99.90
59572;DHT22;74587;45.880;11.484;2024-03-17T08:36:06;11.30;99.90
59572;DHT22;74587;45.880;11.484;2024-03-17T08:38:33;11.50;99.90
59572;DHT22;74587;45.880;11.484;2024-03-17T08:41:07;11.30;99.90
59572;DHT22;74587;45.880;11.484;2024-03-17T08:43:34;11.30;99.90
59572;DHT22;74587;45.880;11.484;2024-03-17T08:48:31;11.40;99.90
59572;DHT22;74587;45.880;11.484;2024-03-17T08:50:57;11.50;99.90
59572;DHT22;74587;45.880;11.484;2024-03-17T08:53:24;11.50;99.90
59572;DHT22;74587;45.880;11.484;2024-03-17T08:55:50;11.70;99.90
59572;DHT22;74587;45.880;11.484;2024-03-17T08:58:17;11.70;99.90
59572;DHT22;74587;45.880;11.484;2024-03-17T09:03:24;11.80;99.90
59572;DHT22;74587;45.880;11.484;2024-03-17T09:05:52;12.10;99.90
59572;DHT22;74587;45.880;11.484;2024-03-17T09:08:24;12.20;99.90
59572;DHT22;74587;45.880;11.484;2024-03-17T09:10:51;12.10;99.90
59572;DHT22;74587;45.880;11.484;2024-03-17T09:13:19;12.20;99.90
59572;DHT22;74587;45.880;11.484;2024-03-17T09:15:52;12.20;99.90
59572;DHT22;74587;45.880;11.484;2024-03-17T09:18:18;12.20;99.90
59572;DHT22;74587;45.880;11.484;2024-03-17T09:20:43;12.20;99.90
59572;DHT22;74587;45.880;11.484;2024-03-17T09:23:09;12.20;99.90
59572;DHT22;74587;45.880;11.484;2024-03-17T09:25:35;12.40;99.90
59572;DHT22;74587;45.880;11.484;2024-03-17T09:28:01;12.40;99.90
59572;DHT22;74587;45.880;11.484;2024-03-17T09:30:26;12.60;99.90
59572;DHT22;74587;45.880;11.484;2024-03-17T09:32:53;12.70;99.90
59572;DHT22;74587;45.880;11.484;2024-03-17T09:35:18;12.70;99.90
59572;DHT22;74587;45.880;11.484;2024-03-17T09:37:52;12.90;99.90
59572;DHT22;74587;45.880;11.484;2024-03-17T09:40:18;12.90;99.90
59572;DHT22;74587;45.880;11.484;2024-03-17T09:42:44;13.10;99.90
59572;DHT22;74587;45.880;11.484;2024-03-17T09:45:13;13.30;99.90
59572;DHT22;74587;45.880;11.484;2024-03-17T09:47:40;13.40;99.90
59572;DHT22;74587;45.880;11.484;2024-03-17T09:50:13;13.40;99.90
59572;DHT22;74587;45.880;11.484;2024-03-17T09:52:45;13.50;99.90
59572;DHT22;74587;45.880;11.484;2024-03-17T09:55:16;13.70;99.90
59572;DHT22;74587;45.880;11.484;2024-03-17T09:57:43;13.70;99.90
59572;DHT22;74587;45.880;11.484;2024-03-17T10:00:11;13.80;99.90
59572;DHT22;74587;45.880;11.484;2024-03-17T10:02:46;13.90;99.90
59572;DHT22;74587;45.880;11.484;2024-03-17T10:05:22;14.00;99.90
59572;DHT22;74587;45.880;11.484;2024-03-17T10:07:50;14.20;99.90
59572;DHT22;74587;45.880;11.484;2024-03-17T10:10:16;14.20;99.90
59572;DHT22;74587;45.880;11.484;2024-03-17T10:12:43;14.20;99.90
59572;DHT22;74587;45.880;11.484;2024-03-17T10:15:12;14.20;99.90
59572;DHT22;74587;45.880;11.484;2024-03-17T10:17:38;14.20;99.90
59572;DHT22;74587;45.880;11.484;2024-03-17T10:20:14;14.20;99.90
59572;DHT22;74587;45.880;11.484;2024-03-17T10:25:23;14.30;99.90
59572;DHT22;74587;45.880;11.484;2024-03-17T10:27:48;14.30;99.90
59572;DHT22;74587;45.880;11.484;2024-03-17T10:30:18;14.40;99.90
59572;DHT22;74587;45.880;11.484;2024-03-17T10:39:31;14.50;99.90
59572;DHT22;74587;45.880;11.484;2024-03-17T10:42:02;14.60;99.90
59572;DHT22;74587;45.880;11.484;2024-03-17T10:44:34;14.60;99.90
59572;DHT22;74587;45.880;11.484;2024-03-17T10:47:00;14.60;99.90
59572;DHT22;74587;45.880;11.484;2024-03-17T10:49:32;14.60;99.90
59572;DHT22;74587;45.880;11.484;2024-03-17T10:52:01;14.60;99.90
59572;DHT22;74587;45.880;11.484;2024-03-17T10:54:28;14.60;99.90
59572;DHT22;74587;45.880;11.484;2024-03-17T10:59:57;14.60;99.90
59572;DHT22;74587;45.880;11.484;2024-03-17T11:02:25;14.60;99.90
59572;DHT22;74587;45.880;11.484;2024-03-17T11:05:00;14.60;99.90
59572;DHT22;74587;45.880;11.484;2024-03-17T11:07:27;14.60;99.90
59572;DHT22;74587;45.880;11.484;2024-03-17T11:09:55;14.60;99.90
59572;DHT22;74587;45.880;11.484;2024-03-17T11:12:51;14.80;99.90
59572;DHT22;74587;45.880;11.484;2024-03-17T11:23:29;14.70;99.90
59572;DHT22;74587;45.880;11.484;2024-03-17T11:25:56;14.80;99.90
59572;DHT22;74587;45.880;11.484;2024-03-17T11:34:02;15.00;99.90
59572;DHT22;74587;45.880;11.484;2024-03-17T11:36:35;15.10;99.90
59572;DHT22;74587;45.880;11.484;2024-03-17T11:39:08;15.10;99.90
59572;DHT22;74587;45.880;11.484;2024-03-17T11:41:48;15.10;99.90
59572;DHT22;74587;45.880;11.484;2024-03-17T11:49:30;15.20;99.90
59572;DHT22;74587;45.880;11.484;2024-03-17T11:51:58;15.30;99.90
59572;DHT22;74587;45.880;11.484;2024-03-17T11:54:32;15.30;99.90
59572;DHT22;74587;45.880;11.484;2024-03-17T11:59:55;15.50;99.20
59572;DHT22;74587;45.880;11.484;2024-03-17T12:02:24;15.40;99.40
59572;DHT22;74587;45.880;11.484;2024-03-17T12:04:57;15.40;99.20
59572;DHT22;74587;45.880;11.484;2024-03-17T12:07:23;15.50;99.90
59572;DHT22;74587;45.880;11.484;2024-03-17T12:09:50;15.50;99.90
59572;DHT22;74587;45.880;11.484;2024-03-17T12:14:50;15.50;99.90
59572;DHT22;74587;45.880;11.484;2024-03-17T12:17:25;15.70;99.90
59572;DHT22;74587;45.880;11.484;2024-03-17T12:19:51;15.70;99.90
59572;DHT22;74587;45.880;11.484;2024-03-17T12:22:22;15.70;99.90
59572;DHT22;74587;45.880;11.484;2024-03-17T12:24:49;15.70;99.90
59572;DHT22;74587;45.880;11.484;2024-03-17T12:27:20;15.70;99.90
59572;DHT22;74587;45.880;11.484;2024-03-17T12:29:48;15.80;99.90
59572;DHT22;74587;45.880;11.484;2024-03-17T12:34:45;15.80;99.90
59572;DHT22;74587;45.880;11.484;2024-03-17T12:37:22;15.90;99.90
59572;DHT22;74587;45.880;11.484;2024-03-17T12:39:49;15.90;99.90
59572;DHT22;74587;45.880;11.484;2024-03-17T12:42:17;15.90;99.90
59572;DHT22;74587;45.880;11.484;2024-03-17T12:44:57;15.80;99.90
59572;DHT22;74587;45.880;11.484;2024-03-17T12:47:28;15.80;99.90
59572;DHT22;74587;45.880;11.484;2024-03-17T12:49:55;15.80;99.30
59572;DHT22;74587;45.880;11.484;2024-03-17T12:55:18;15.70;99.90
59572;DHT22;74587;45.880;11.484;2024-03-17T13:01:07;15.70;99.90
59572;DHT22;74587;45.880;11.484;2024-03-17T13:03:34;15.70;99.90
59572;DHT22;74587;45.880;11.484;2024-03-17T13:06:00;15.70;99.90
59572;DHT22;74587;45.880;11.484;2024-03-17T13:08:28;15.70;99.90
59572;DHT22;74587;45.880;11.484;2024-03-17T13:10:54;15.70;99.90
59572;DHT22;74587;45.880;11.484;2024-03-17T13:13:20;15.60;99.90
59572;DHT22;74587;45.880;11.484;2024-03-17T13:15:46;15.60;99.90
59572;DHT22;74587;45.880;11.484;2024-03-17T13:18:21;15.50;99.90
59572;DHT22;74587;45.880;11.484;2024-03-17T13:20:47;15.50;99.90
59572;DHT22;74587;45.880;11.484;2024-03-17T13:23:15;15.60;99.90
59572;DHT22;74587;45.880;11.484;2024-03-17T13:25:41;15.60;99.90
59572;DHT22;74587;45.880;11.484;2024-03-17T13:28:09;15.50;99.90
59572;DHT22;74587;45.880;11.484;2024-03-17T13:30:35;15.50;99.90
59572;DHT22;74587;45.880;11.484;2024-03-17T13:33:05;15.50;99.90
59572;DHT22;74587;45.880;11.484;2024-03-17T13:35:34;15.40;99.90
59572;DHT22;74587;45.880;11.484;2024-03-17T13:38:07;15.40;99.90
59572;DHT22;74587;45.880;11.484;2024-03-17T13:40:34;15.30;99.90
59572;DHT22;74587;45.880;11.484;2024-03-17T13:43:00;15.30;99.90
59572;DHT22;74587;45.880;11.484;2024-03-17T13:45:29;15.10;99.90
59572;DHT22;74587;45.880;11.484;2024-03-17T13:47:56;15.10;99.90
59572;DHT22;74587;45.880;11.484;2024-03-17T13:50:22;15.20;99.90
59572;DHT22;74587;45.880;11.484;2024-03-17T13:52:49;15.10;99.90
59572;DHT22;74587;45.880;11.484;2024-03-17T13:55:16;15.00;99.90
59572;DHT22;74587;45.880;11.484;2024-03-17T13:57:54;15.00;99.90
59572;DHT22;74587;45.880;11.484;2024-03-17T14:00:20;15.00;99.90
59572;DHT22;74587;45.880;11.484;2024-03-17T14:02:47;15.00;99.90
59572;DHT22;74587;45.880;11.484;2024-03-17T14:05:15;14.90;99.90
59572;DHT22;74587;45.880;11.484;2024-03-17T14:07:42;14.90;99.90
59572;DHT22;74587;45.880;11.484;2024-03-17T14:10:09;14.90;99.90
59572;DHT22;74587;45.880;11.484;2024-03-17T14:12:36;14.80;99.90
59572;DHT22;74587;45.880;11.484;2024-03-17T14:15:04;14.70;99.90
59572;DHT22;74587;45.880;11.484;2024-03-17T14:17:32;14.80;99.90
59572;DHT22;74587;45.880;11.484;2024-03-17T14:19:59;14.90;99.90
59572;DHT22;74587;45.880;11.484;2024-03-17T14:22:25;14.80;99.90
59572;DHT22;74587;45.880;11.484;2024-03-17T14:24:51;14.90;99.90
59572;DHT22;74587;45.880;11.484;2024-03-17T14:27:17;14.90;99.90
59572;DHT22;74587;45.880;11.484;2024-03-17T14:29:46;14.90;99.90
59572;DHT22;74587;45.880;11.484;2024-03-17T14:32:11;14.80;99.90
59572;DHT22;74587;45.880;11.484;2024-03-17T14:34:39;14.80;99.90
59572;DHT22;74587;45.880;11.484;2024-03-17T14:37:05;14.80;99.90
59572;DHT22;74587;45.880;11.484;2024-03-17T14:39:31;14.80;99.90
59572;DHT22;74587;45.880;11.484;2024-03-17T14:41:57;14.80;99.90
59572;DHT22;74587;45.880;11.484;2024-03-17T14:44:23;14.70;99.90
59572;DHT22;74587;45.880;11.484;2024-03-17T14:46:50;14.70;99.90
59572;DHT22;74587;45.880;11.484;2024-03-17T14:49:19;14.60;99.90
59572;DHT22;74587;45.880;11.484;2024-03-17T14:51:47;14.60;99.90
59572;DHT22;74587;45.880;11.484;2024-03-17T14:54:13;14.60;99.90
59572;DHT22;74587;45.880;11.484;2024-03-17T14:56:39;14.40;99.90
59572;DHT22;74587;45.880;11.484;2024-03-17T14:59:07;14.50;99.90
59572;DHT22;74587;45.880;11.484;2024-03-17T15:01:34;14.40;99.90
59572;DHT22;74587;45.880;11.484;2024-03-17T15:04:00;14.30;99.90
59572;DHT22;74587;45.880;11.484;2024-03-17T15:06:26;14.30;99.90
59572;DHT22;74587;45.880;11.484;2024-03-17T15:08:53;14.40;99.90
59572;DHT22;74587;45.880;11.484;2024-03-17T15:11:18;14.30;99.90
59572;DHT22;74587;45.880;11.484;2024-03-17T15:13:44;14.20;99.90
59572;DHT22;74587;45.880;11.484;2024-03-17T15:16:11;14.10;99.90
59572;DHT22;74587;45.880;11.484;2024-03-17T15:18:38;14.20;99.90
59572;DHT22;74587;45.880;11.484;2024-03-17T15:21:04;14.10;99.90
59572;DHT22;74587;45.880;11.484;2024-03-17T15:23:33;14.10;99.90
59572;DHT22;74587;45.880;11.484;2024-03-17T15:26:07;13.90;99.90
59572;DHT22;74587;45.880;11.484;2024-03-17T15:28:43;14.00;99.90
59572;DHT22;74587;45.880;11.484;2024-03-17T15:31:10;14.00;99.90
59572;DHT22;74587;45.880;11.484;2024-03-17T15:33:37;13.90;99.90
59572;DHT22;74587;45.880;11.484;2024-03-17T15:36:07;13.90;99.90
59572;DHT22;74587;45.880;11.484;2024-03-17T15:38:37;13.90;99.90
59572;DHT22;74587;45.880;11.484;2024-03-17T15:41:04;13.90;99.90
59572;DHT22;74587;45.880;11.484;2024-03-17T15:43:39;13.90;99.90
59572;DHT22;74587;45.880;11.484;2024-03-17T15:48:34;13.70;99.90
59572;DHT22;74587;45.880;11.484;2024-03-17T15:51:00;13.60;99.90
59572;DHT22;74587;45.880;11.484;2024-03-17T15:53:27;13.60;99.90
59572;DHT22;74587;45.880;11.484;2024-03-17T15:55:56;13.60;99.90
59572;DHT22;74587;45.880;11.484;2024-03-17T15:58:23;13.60;99.90
59572;DHT22;74587;45.880;11.484;2024-03-17T16:00:49;13.60;99.90
59572;DHT22;74587;45.880;11.484;2024-03-17T16:03:15;13.60;99.90
59572;DHT22;74587;45.880;11.484;2024-03-17T16:05:46;13.70;99.90
59572;DHT22;74587;45.880;11.484;2024-03-17T16:08:12;13.60;99.90
59572;DHT22;74587;45.880;11.484;2024-03-17T16:10:38;13.60;99.90
59572;DHT22;74587;45.880;11.484;2024-03-17T16:13:05;13.70;99.90
59572;DHT22;74587;45.880;11.484;2024-03-17T16:15:31;13.60;99.90
59572;DHT22;74587;45.880;11.484;2024-03-17T16:17:58;13.70;99.90
59572;DHT22;74587;45.880;11.484;2024-03-17T16:23:06;13.70;99.90
59572;DHT22;74587;45.880;11.484;2024-03-17T16:25:32;13.80;99.90
59572;DHT22;74587;45.880;11.484;2024-03-17T16:27:58;13.70;99.90
59572;DHT22;74587;45.880;11.484;2024-03-17T16:30:26;13.70;99.90
59572;DHT22;74587;45.880;11.484;2024-03-17T16:32:51;13.70;99.90
59572;DHT22;74587;45.880;11.484;2024-03-17T16:35:17;13.70;99.90
59572;DHT22;74587;45.880;11.484;2024-03-17T16:37:43;13.60;99.90
59572;DHT22;74587;45.880;11.484;2024-03-17T16:40:09;13.60;99.90
59572;DHT22;74587;45.880;11.484;2024-03-17T16:42:35;13.60;99.90
59572;DHT22;74587;45.880;11.484;2024-03-17T16:45:05;13.50;99.90
59572;DHT22;74587;45.880;11.484;2024-03-17T16:47:32;13.60;99.90
59572;DHT22;74587;45.880;11.484;2024-03-17T16:50:02;13.50;99.90
59572;DHT22;74587;45.880;11.484;2024-03-17T16:52:32;13.40;99.90
59572;DHT22;74587;45.880;11.484;2024-03-17T16:54:58;13.40;99.90
59572;DHT22;74587;45.880;11.484;2024-03-17T16:57:24;13.40;99.90
59572;DHT22;74587;45.880;11.484;2024-03-17T16:59:50;13.40;99.90
59572;DHT22;74587;45.880;11.484;2024-03-17T17:02:17;13.40;99.90
59572;DHT22;74587;45.880;11.484;2024-03-17T17:04:44;13.40;99.90
59572;DHT22;74587;45.880;11.484;2024-03-17T17:07:11;13.20;99.90
59572;DHT22;74587;45.880;11.484;2024-03-17T17:09:37;13.20;99.90
59572;DHT22;74587;45.880;11.484;2024-03-17T17:12:05;13.30;99.90
59572;DHT22;74587;45.880;11.484;2024-03-17T17:14:34;13.30;99.90
59572;DHT22;74587;45.880;11.484;2024-03-17T17:17:11;13.20;99.90
59572;DHT22;74587;45.880;11.484;2024-03-17T17:19:38;13.20;99.90
59572;DHT22;74587;45.880;11.484;2024-03-17T17:22:13;13.20;99.90
59572;DHT22;74587;45.880;11.484;2024-03-17T17:24:39;13.10;99.90
59572;DHT22;74587;45.880;11.484;2024-03-17T17:27:05;13.00;99.90
59572;DHT22;74587;45.880;11.484;2024-03-17T17:29:37;12.90;99.90
59572;DHT22;74587;45.880;11.484;2024-03-17T17:32:07;12.80;99.90
59572;DHT22;74587;45.880;11.484;2024-03-17T17:34:36;12.80;99.90
59572;DHT22;74587;45.880;11.484;2024-03-17T17:37:03;12.80;99.90
59572;DHT22;74587;45.880;11.484;2024-03-17T17:39:29;12.80;99.90
59572;DHT22;74587;45.880;11.484;2024-03-17T17:41:55;12.80;99.90
59572;DHT22;74587;45.880;11.484;2024-03-17T17:44:22;12.70;99.90
59572;DHT22;74587;45.880;11.484;2024-03-17T17:46:48;12.70;99.90
59572;DHT22;74587;45.880;11.484;2024-03-17T17:49:13;12.70;99.90
59572;DHT22;74587;45.880;11.484;2024-03-17T17:51:39;12.60;99.90
59572;DHT22;74587;45.880;11.484;2024-03-17T17:54:05;12.50;99.90
59572;DHT22;74587;45.880;11.484;2024-03-17T17:56:31;12.40;99.90
59572;DHT22;74587;45.880;11.484;2024-03-17T17:58:57;12.20;99.90
59572;DHT22;74587;45.880;11.484;2024-03-17T18:01:23;12.00;99.90
59572;DHT22;74587;45.880;11.484;2024-03-17T18:03:48;12.20;99.90
59572;DHT22;74587;45.880;11.484;2024-03-17T18:06:16;11.90;99.90
59572;DHT22;74587;45.880;11.484;2024-03-17T18:08:43;11.70;99.90
59572;DHT22;74587;45.880;11.484;2024-03-17T18:11:09;11.60;99.90
59572;DHT22;74587;45.880;11.484;2024-03-17T18:13:35;11.50;99.90
59572;DHT22;74587;45.880;11.484;2024-03-17T18:16:05;11.30;99.90
59572;DHT22;74587;45.880;11.484;2024-03-17T18:18:34;11.20;99.90
59572;DHT22;74587;45.880;11.484;2024-03-17T18:21:06;11.20;99.90
59572;DHT22;74587;45.880;11.484;2024-03-17T18:23:36;11.10;99.90
59572;DHT22;74587;45.880;11.484;2024-03-17T18:26:10;11.10;99.90
59572;DHT22;74587;45.880;11.484;2024-03-17T18:28:37;11.00;99.90
59572;DHT22;74587;45.880;11.484;2024-03-17T18:31:03;10.80;99.90
59572;DHT22;74587;45.880;11.484;2024-03-17T18:33:32;10.80;99.90
59572;DHT22;74587;45.880;11.484;2024-03-17T18:35:58;10.70;99.90
59572;DHT22;74587;45.880;11.484;2024-03-17T18:38:24;10.70;99.90
59572;DHT22;74587;45.880;11.484;2024-03-17T18:41:00;10.80;99.90
59572;DHT22;74587;45.880;11.484;2024-03-17T18:43:30;10.70;99.90
59572;DHT22;74587;45.880;11.484;2024-03-17T18:45:56;10.80;99.90
59572;DHT22;74587;45.880;11.484;2024-03-17T18:48:22;10.60;99.90
59572;DHT22;74587;45.880;11.484;2024-03-17T18:50:55;10.60;99.90
59572;DHT22;74587;45.880;11.484;2024-03-17T18:53:21;10.50;99.90
59572;DHT22;74587;45.880;11.484;2024-03-17T18:56:02;10.40;99.90
59572;DHT22;74587;45.880;11.484;2024-03-17T18:58:29;10.40;99.90
59572;DHT22;74587;45.880;11.484;2024-03-17T19:00:56;10.30;99.90
59572;DHT22;74587;45.880;11.484;2024-03-17T19:03:22;10.20;99.90
59572;DHT22;74587;45.880;11.484;2024-03-17T19:05:50;10.30;99.90
59572;DHT22;74587;45.880;11.484;2024-03-17T19:08:22;10.30;99.90
59572;DHT22;74587;45.880;11.484;2024-03-17T19:10:52;10.20;99.90
59572;DHT22;74587;45.880;11.484;2024-03-17T19:13:19;10.20;99.90
59572;DHT22;74587;45.880;11.484;2024-03-17T19:15:45;10.10;99.90
59572;DHT22;74587;45.880;11.484;2024-03-17T19:18:11;10.20;99.90
59572;DHT22;74587;45.880;11.484;2024-03-17T19:20:37;10.10;99.90
59572;DHT22;74587;45.880;11.484;2024-03-17T19:23:03;10.00;99.90
59572;DHT22;74587;45.880;11.484;2024-03-17T19:25:29;9.90;99.90
59572;DHT22;74587;45.880;11.484;2024-03-17T19:27:55;9.90;99.90
59572;DHT22;74587;45.880;11.484;2024-03-17T19:30:21;9.90;99.90
59572;DHT22;74587;45.880;11.484;2024-03-17T19:32:47;9.90;99.90
59572;DHT22;74587;45.880;11.484;2024-03-17T19:35:14;9.80;99.90
59572;DHT22;74587;45.880;11.484;2024-03-17T19:37:40;9.80;99.90
59572;DHT22;74587;45.880;11.484;2024-03-17T19:40:06;9.70;99.90
59572;DHT22;74587;45.880;11.484;2024-03-17T19:42:32;9.80;99.90
59572;DHT22;74587;45.880;11.484;2024-03-17T19:44:58;9.70;99.90
59572;DHT22;74587;45.880;11.484;2024-03-17T19:47:24;9.70;99.90
59572;DHT22;74587;45.880;11.484;2024-03-17T19:49:51;9.60;99.90
59572;DHT22;74587;45.880;11.484;2024-03-17T19:52:17;9.60;99.90
59572;DHT22;74587;45.880;11.484;2024-03-17T19:54:46;9.60;99.90
59572;DHT22;74587;45.880;11.484;2024-03-17T19:57:12;9.70;99.90
59572;DHT22;74587;45.880;11.484;2024-03-17T19:59:39;9.60;99.90
59572;DHT22;74587;45.880;11.484;2024-03-17T20:02:05;9.70;99.90
59572;DHT22;74587;45.880;11.484;2024-03-17T20:04:31;9.80;99.90
59572;DHT22;74587;45.880;11.484;2024-03-17T20:06:57;9.70;99.90
59572;DHT22;74587;45.880;11.484;2024-03-17T20:09:24;9.70;99.90
59572;DHT22;74587;45.880;11.484;2024-03-17T20:11:50;9.80;99.90
59572;DHT22;74587;45.880;11.484;2024-03-17T20:14:16;9.80;99.90
59572;DHT22;74587;45.880;11.484;2024-03-17T20:16:42;9.90;99.90
59572;DHT22;74587;45.880;11.484;2024-03-17T20:19:08;9.80;99.90
59572;DHT22;74587;45.880;11.484;2024-03-17T20:21:34;9.80;99.90
59572;DHT22;74587;45.880;11.484;2024-03-17T20:24:00;9.70;99.90
59572;DHT22;74587;45.880;11.484;2024-03-17T20:26:26;9.80;99.90
59572;DHT22;74587;45.880;11.484;2024-03-17T20:28:58;9.80;99.90
59572;DHT22;74587;45.880;11.484;2024-03-17T20:31:24;9.70;99.90